Time;durP1;ratioP1;P1;durP2;ratioP2;P2;SDS_P1;SDS_P2;PMS_P1;PMS_P2;Temp;Humidity;BMP_temperature;BMP_pressure;BME280_temperature;BME280_humidity;BME280_pressure;Samples;Min_cycle;Max_cycle;Signal;HPM_P1;HPM_P2
2020/12/29 00:01:41;;;;;;;0.20;0.10;;;;;;;2.92;100.00;96689.72;5042061;28;20451;-55
2020/12/29 00:04:10;;;;;;;0.20;0.10;;;;;;;3.01;100.00;96698.81;5038975;28;20458;-54
2020/12/29 00:07:03;;;;;;;0.20;0.10;;;;;;;3.00;100.00;96694.50;5043099;28;20447;-54
2020/12/29 00:09:29;;;;;;;0.20;0.10;;;;;;;3.13;100.00;96693.72;5041099;28;20463;-55
2020/12/29 00:11:56;;;;;;;0.20;0.10;;;;;;;3.31;100.00;96696.25;5040589;28;20517;-55
2020/12/29 00:14:24;;;;;;;0.20;0.10;;;;;;;3.13;100.00;96688.47;5047017;28;20447;-55
2020/12/29 00:16:50;;;;;;;0.20;0.10;;;;;;;3.14;100.00;96690.16;5033667;28;20474;-54
2020/12/29 00:19:21;;;;;;;0.20;0.10;;;;;;;3.30;100.00;96691.94;5036909;28;20492;-54
2020/12/29 00:21:47;;;;;;;0.20;0.10;;;;;;;3.06;100.00;96689.78;5052399;28;20977;-55
2020/12/29 00:24:14;;;;;;;0.20;0.20;;;;;;;3.11;100.00;96692.97;5043727;28;20451;-55
2020/12/29 00:26:59;;;;;;;0.20;0.10;;;;;;;3.34;100.00;96698.69;5044200;28;20467;-54
2020/12/29 00:29:25;;;;;;;0.20;0.10;;;;;;;3.25;100.00;96698.28;5041864;28;20521;-55
2020/12/29 00:31:51;;;;;;;0.20;0.10;;;;;;;3.21;100.00;96691.53;5046524;28;20462;-55
2020/12/29 00:34:17;;;;;;;0.20;0.13;;;;;;;3.30;100.00;96689.31;5040654;28;20462;-54
2020/12/29 00:36:44;;;;;;;0.30;0.20;;;;;;;2.92;100.00;96692.34;5039712;28;20470;-55
2020/12/29 00:39:10;;;;;;;0.20;0.10;;;;;;;3.05;100.00;96693.34;5041541;28;20487;-55
2020/12/29 00:41:37;;;;;;;0.20;0.10;;;;;;;2.87;100.00;96696.97;5047807;28;20475;-55
2020/12/29 00:44:03;;;;;;;0.20;0.10;;;;;;;2.59;100.00;96688.00;5048456;28;20454;-54
2020/12/29 00:46:29;;;;;;;0.20;0.10;;;;;;;2.48;100.00;96685.16;5039734;28;20516;-54
2020/12/29 00:49:00;;;;;;;0.20;0.10;;;;;;;2.64;100.00;96687.78;5041571;28;20451;-54
2020/12/29 00:51:26;;;;;;;0.20;0.20;;;;;;;2.79;100.00;96688.72;5045722;28;20963;-54
2020/12/29 00:53:52;;;;;;;0.20;0.10;;;;;;;2.97;100.00;96687.66;5046372;28;20457;-55
2020/12/29 00:56:18;;;;;;;0.20;0.17;;;;;;;2.75;100.00;96684.56;5041876;28;20458;-54
2020/12/29 00:58:44;;;;;;;0.20;0.10;;;;;;;3.01;100.00;96688.31;5043626;28;20471;-55
2020/12/29 01:01:11;;;;;;;0.20;0.10;;;;;;;3.03;100.00;96681.25;5045352;28;20546;-56
2020/12/29 01:03:38;;;;;;;0.20;0.10;;;;;;;2.95;100.00;96682.50;5046822;28;20450;-54
2020/12/29 01:06:05;;;;;;;0.20;0.10;;;;;;;2.71;100.00;96683.88;5039175;28;20469;-55
2020/12/29 01:08:32;;;;;;;0.20;0.10;;;;;;;2.85;100.00;96686.56;5041107;28;20472;-55
2020/12/29 01:10:59;;;;;;;0.20;0.10;;;;;;;2.66;100.00;96688.53;5045959;28;20514;-55
2020/12/29 01:13:25;;;;;;;0.20;0.10;;;;;;;2.55;100.00;96685.66;5046941;28;20533;-55
2020/12/29 01:15:52;;;;;;;0.20;0.10;;;;;;;2.61;100.00;96694.03;5059414;28;20444;-55
2020/12/29 01:18:19;;;;;;;0.20;0.10;;;;;;;2.81;100.00;96695.56;5057511;28;20474;-55
2020/12/29 01:20:50;;;;;;;0.20;0.10;;;;;;;2.56;100.00;96697.81;5044213;28;20481;-55
2020/12/29 01:23:16;;;;;;;0.20;0.10;;;;;;;2.66;100.00;96689.38;5052378;28;20863;-55
2020/12/29 01:25:43;;;;;;;0.30;0.30;;;;;;;2.70;100.00;96697.06;5049200;28;20462;-54
2020/12/29 01:28:10;;;;;;;0.20;0.10;;;;;;;3.07;100.00;96696.72;5051501;28;20471;-55
2020/12/29 01:30:37;;;;;;;0.20;0.10;;;;;;;3.21;100.00;96691.53;5043405;28;20498;-55
2020/12/29 01:33:03;;;;;;;0.20;0.10;;;;;;;3.46;100.00;96698.84;5045622;28;20455;-55
2020/12/29 01:35:30;;;;;;;0.20;0.10;;;;;;;3.30;100.00;96687.53;5039427;28;20450;-54
2020/12/29 01:37:56;;;;;;;0.20;0.10;;;;;;;3.10;100.00;96696.53;5038702;28;21070;-55
2020/12/29 01:40:22;;;;;;;0.20;0.10;;;;;;;3.00;100.00;96691.88;5045651;28;20992;-54
2020/12/29 01:42:49;;;;;;;0.20;0.10;;;;;;;3.15;100.00;96689.28;5033755;28;20459;-54
2020/12/29 01:45:18;;;;;;;0.20;0.10;;;;;;;3.13;100.00;96693.72;5044238;28;20455;-53
2020/12/29 01:47:47;;;;;;;0.20;0.10;;;;;;;3.00;100.00;96692.72;5044900;28;20485;-54
2020/12/29 01:50:19;;;;;;;0.20;0.10;;;;;;;3.20;100.00;96694.25;5040851;28;20443;-54
2020/12/29 01:52:58;;;;;;;0.20;0.10;;;;;;;3.03;100.00;96695.22;5042439;28;20524;-54
2020/12/29 01:55:25;;;;;;;0.20;0.10;;;;;;;2.75;100.00;96688.03;5044216;28;20463;-54
2020/12/29 01:57:52;;;;;;;0.20;0.10;;;;;;;2.76;100.00;96694.97;5040369;28;20467;-54
2020/12/29 02:00:19;;;;;;;0.20;0.10;;;;;;;2.80;100.00;96696.47;5044131;28;20483;-54
2020/12/29 02:02:46;;;;;;;0.20;0.10;;;;;;;2.70;100.00;96694.44;5040976;28;20458;-54
2020/12/29 02:05:12;;;;;;;0.20;0.10;;;;;;;2.68;100.00;96705.88;5043188;28;20459;-54
2020/12/29 02:07:40;;;;;;;0.20;0.10;;;;;;;2.73;100.00;96707.38;5048560;28;20537;-54
2020/12/29 02:10:06;;;;;;;0.20;0.10;;;;;;;2.68;100.00;96711.13;5047729;28;20443;-54
2020/12/29 02:12:36;;;;;;;0.20;0.10;;;;;;;2.88;100.00;96715.28;5042297;28;20448;-54
2020/12/29 02:15:05;;;;;;;0.20;0.10;;;;;;;2.75;100.00;96713.41;5043540;28;20470;-54
2020/12/29 02:17:32;;;;;;;0.20;0.10;;;;;;;2.64;100.00;96701.72;5042318;28;20477;-53
2020/12/29 02:19:58;;;;;;;0.20;0.10;;;;;;;2.60;100.00;96709.81;5044389;28;20497;-54
2020/12/29 02:22:26;;;;;;;0.20;0.20;;;;;;;2.75;100.00;96703.78;5055135;28;20504;-54
2020/12/29 02:25:01;;;;;;;0.20;0.10;;;;;;;2.60;100.00;96710.72;5055087;28;20458;-53
2020/12/29 02:27:31;;;;;;;0.20;0.10;;;;;;;2.51;100.00;96712.97;5049491;28;20496;-54
2020/12/29 02:29:58;;;;;;;0.30;0.10;;;;;;;2.53;100.00;96711.94;5041838;28;20443;-54
2020/12/29 02:32:26;;;;;;;0.20;0.10;;;;;;;2.46;100.00;96710.56;5046181;28;20459;-54
2020/12/29 02:34:53;;;;;;;0.20;0.10;;;;;;;2.36;100.00;96714.66;5047290;28;20447;-53
2020/12/29 02:37:20;;;;;;;0.20;0.10;;;;;;;2.45;100.00;96715.91;5045744;28;20478;-53
2020/12/29 02:39:51;;;;;;;0.20;0.10;;;;;;;2.42;100.00;96718.69;5048290;28;20505;-54
2020/12/29 02:42:18;;;;;;;0.20;0.10;;;;;;;2.53;100.00;96717.19;5044655;28;20446;-54
2020/12/29 02:44:44;;;;;;;0.20;0.10;;;;;;;2.47;100.00;96709.69;5041366;28;20455;-53
2020/12/29 02:47:10;;;;;;;0.20;0.10;;;;;;;2.54;100.00;96713.63;5044708;28;20483;-54
2020/12/29 02:49:37;;;;;;;0.20;0.10;;;;;;;2.54;100.00;96713.63;5040151;28;20872;-54
2020/12/29 02:52:04;;;;;;;0.20;0.10;;;;;;;2.50;100.00;96706.03;5043796;28;20447;-54
2020/12/29 02:54:30;;;;;;;0.20;0.10;;;;;;;2.59;100.00;96711.59;5050839;28;20440;-54
2020/12/29 02:56:57;;;;;;;0.20;0.10;;;;;;;2.64;100.00;96706.97;5044571;28;20467;-54
2020/12/29 02:59:23;;;;;;;0.20;0.10;;;;;;;2.62;100.00;96713.25;5041188;28;20486;-53
2020/12/29 03:01:50;;;;;;;0.20;0.10;;;;;;;2.59;100.00;96713.38;5043811;28;20448;-53
2020/12/29 03:04:17;;;;;;;0.20;0.10;;;;;;;2.63;100.00;96714.94;5040149;28;20467;-54
2020/12/29 03:06:43;;;;;;;0.20;0.10;;;;;;;2.74;100.00;96714.31;5045112;28;20496;-54
2020/12/29 03:09:09;;;;;;;0.20;0.10;;;;;;;2.78;100.00;96715.88;5040927;28;20447;-54
2020/12/29 03:11:36;;;;;;;0.20;0.10;;;;;;;3.00;100.00;96720.75;5042830;28;20545;-54
2020/12/29 03:14:06;;;;;;;0.20;0.10;;;;;;;3.00;100.00;96715.50;5047581;28;21337;-54
2020/12/29 03:16:33;;;;;;;0.20;0.10;;;;;;;2.93;100.00;96723.72;5045794;28;20443;-54
2020/12/29 03:19:19;;;;;;;0.20;0.10;;;;;;;2.80;100.00;96719.25;5046087;28;20990;-54
2020/12/29 03:21:45;;;;;;;0.20;0.10;;;;;;;2.88;100.00;96723.16;5053149;28;20496;-54
2020/12/29 03:24:12;;;;;;;0.20;0.10;;;;;;;3.00;100.00;96726.84;5052360;28;20466;-54
2020/12/29 03:26:38;;;;;;;0.20;0.10;;;;;;;3.09;100.00;96723.69;5053492;28;20470;-53
2020/12/29 03:29:05;;;;;;;0.20;0.20;;;;;;;3.12;100.00;96726.16;5046033;28;20456;-53
2020/12/29 03:31:31;;;;;;;0.20;0.10;;;;;;;3.04;100.00;96720.50;5047542;28;20450;-54
2020/12/29 03:33:57;;;;;;;0.20;0.10;;;;;;;3.11;100.00;96723.63;5041480;28;20948;-54
2020/12/29 03:36:23;;;;;;;0.20;0.10;;;;;;;3.23;100.00;96731.63;5040264;28;20459;-54
2020/12/29 03:38:49;;;;;;;0.20;0.10;;;;;;;3.12;100.00;96726.16;5045742;28;20463;-54
2020/12/29 03:41:15;;;;;;;0.20;0.10;;;;;;;3.17;100.00;96726.75;5046988;28;20486;-54
2020/12/29 03:43:41;;;;;;;0.20;0.10;;;;;;;3.25;100.00;96728.94;5040606;28;20487;-54
2020/12/29 03:46:07;;;;;;;0.20;0.10;;;;;;;3.45;100.00;96725.19;5051912;28;20446;-54
2020/12/29 03:48:34;;;;;;;0.20;0.10;;;;;;;3.47;100.00;96736.44;5040755;28;20583;-54
2020/12/29 03:51:00;;;;;;;1.10;1.07;;;;;;;3.47;100.00;96746.94;5040406;28;20451;-54
2020/12/29 03:53:26;;;;;;;0.20;0.10;;;;;;;3.59;100.00;96740.97;5053322;28;20450;-54
2020/12/29 03:55:52;;;;;;;0.20;0.10;;;;;;;3.69;100.00;96750.00;5039603;28;20452;-54
2020/12/29 03:58:18;;;;;;;0.20;0.10;;;;;;;3.84;100.00;96750.91;5044641;28;20523;-54
2020/12/29 04:00:44;;;;;;;0.20;0.10;;;;;;;3.77;100.00;96760.91;5045312;28;20903;-54
2020/12/29 04:03:11;;;;;;;0.20;0.10;;;;;;;3.86;100.00;96759.53;5039725;28;20474;-54
2020/12/29 04:05:37;;;;;;;0.20;0.10;;;;;;;3.81;100.00;96770.28;5035012;28;20435;-54
2020/12/29 04:08:03;;;;;;;0.20;0.10;;;;;;;3.77;100.00;96773.19;5044803;28;20503;-54
2020/12/29 04:10:29;;;;;;;0.20;0.20;;;;;;;3.67;100.00;96777.28;5045181;28;20458;-54
2020/12/29 04:12:55;;;;;;;0.20;0.10;;;;;;;3.69;100.00;96778.88;5044187;28;20455;-54
2020/12/29 04:15:21;;;;;;;0.20;0.10;;;;;;;3.70;100.00;96779.72;5046049;28;20451;-54
2020/12/29 04:17:47;;;;;;;0.20;0.10;;;;;;;3.88;100.00;96783.09;5041395;28;20467;-54
2020/12/29 04:20:17;;;;;;;0.20;0.10;;;;;;;3.70;100.00;96782.34;5043929;28;20906;-54
2020/12/29 04:22:43;;;;;;;20.13;7.77;;;;;;;3.67;100.00;96786.00;5052814;28;20461;-54
2020/12/29 04:25:10;;;;;;;0.20;0.10;;;;;;;3.68;100.00;96790.31;5051775;28;20467;-54
2020/12/29 04:27:40;;;;;;;0.20;0.10;;;;;;;3.67;100.00;96787.78;5052869;28;20470;-54
2020/12/29 04:30:08;;;;;;;0.20;0.10;;;;;;;3.90;100.00;96797.81;5039226;28;20450;-54
2020/12/29 04:32:34;;;;;;;0.20;0.10;;;;;;;3.84;100.00;96803.44;5042560;28;20460;-54
2020/12/29 04:35:01;;;;;;;0.20;0.10;;;;;;;3.93;100.00;96805.50;5044683;28;20936;-54
2020/12/29 04:37:28;;;;;;;0.20;0.10;;;;;;;3.93;100.00;96807.28;5042961;28;20558;-54
2020/12/29 04:39:55;;;;;;;0.20;0.13;;;;;;;3.85;100.00;96815.63;5039396;28;20536;-54
2020/12/29 04:42:23;;;;;;;0.20;0.20;;;;;;;3.84;100.00;96817.41;5042043;28;20459;-54
2020/12/29 04:44:51;;;;;;;0.20;0.10;;;;;;;3.84;100.00;96833.19;5045844;28;20821;-54
2020/12/29 04:47:17;;;;;;;0.20;0.10;;;;;;;3.76;100.00;96831.91;5032744;28;20862;-54
2020/12/29 04:49:44;;;;;;;0.20;0.10;;;;;;;3.84;100.00;96835.81;5045956;28;20451;-54
2020/12/29 04:52:11;;;;;;;0.20;0.10;;;;;;;3.81;100.00;96846.47;5043664;28;20929;-54
2020/12/29 04:54:41;;;;;;;0.20;0.10;;;;;;;3.70;100.00;96848.00;5047803;28;20498;-54
2020/12/29 04:57:09;;;;;;;0.20;0.10;;;;;;;3.73;100.00;96859.19;5041474;28;20486;-54
2020/12/29 04:59:37;;;;;;;0.20;0.10;;;;;;;3.85;100.00;96855.88;5038024;28;20494;-54
2020/12/29 05:02:04;;;;;;;0.20;0.10;;;;;;;3.67;100.00;96863.94;5040431;28;20458;-54
2020/12/29 05:04:31;;;;;;;0.20;0.10;;;;;;;3.65;100.00;96871.91;5045556;28;20454;-54
2020/12/29 05:06:58;;;;;;;0.20;0.10;;;;;;;3.70;100.00;96872.50;5043902;28;20471;-54
2020/12/29 05:09:27;;;;;;;0.20;0.10;;;;;;;3.53;100.00;96886.56;5039237;28;20461;-54
2020/12/29 05:11:54;;;;;;;0.20;0.10;;;;;;;3.54;100.00;96885.63;5038203;28;21091;-54
2020/12/29 05:14:24;;;;;;;0.20;0.10;;;;;;;3.69;100.00;96888.31;5038456;28;20455;-54
2020/12/29 05:16:50;;;;;;;0.20;0.10;;;;;;;3.54;100.00;96897.91;5038916;28;20506;-54
2020/12/29 05:19:19;;;;;;;0.20;0.10;;;;;;;3.51;100.00;96903.34;5045261;28;20795;-54
2020/12/29 05:21:46;;;;;;;0.20;0.10;;;;;;;3.55;100.00;96905.69;5051407;28;20458;-54
2020/12/29 05:24:16;;;;;;;0.20;0.10;;;;;;;3.54;100.00;96913.66;5052369;28;20451;-54
2020/12/29 05:26:44;;;;;;;0.20;0.20;;;;;;;3.56;100.00;96903.91;5056234;28;20523;-54
2020/12/29 05:29:12;;;;;;;0.20;0.10;;;;;;;3.48;100.00;96914.84;5046804;28;20522;-54
2020/12/29 05:31:40;;;;;;;0.20;0.10;;;;;;;3.49;100.00;96926.22;5049642;28;20459;-54
2020/12/29 05:34:06;;;;;;;0.30;0.20;;;;;;;3.43;100.00;96932.66;5037402;28;20474;-55
2020/12/29 05:36:37;;;;;;;0.20;0.10;;;;;;;3.50;100.00;96936.63;5049381;28;20459;-54
2020/12/29 05:39:08;;;;;;;0.20;0.10;;;;;;;3.54;100.00;96939.91;5046538;28;20447;-54
2020/12/29 05:41:43;;;;;;;0.20;0.10;;;;;;;3.58;100.00;96949.34;5042628;28;20478;-54
2020/12/29 05:44:21;;;;;;;0.20;0.10;;;;;;;3.82;100.00;96958.47;5043656;28;20450;-54
2020/12/29 05:46:48;;;;;;;0.20;0.10;;;;;;;3.56;100.00;96964.31;5042968;28;20849;-54
2020/12/29 05:49:18;;;;;;;0.20;0.10;;;;;;;3.71;100.00;96968.75;5042390;28;20447;-54
2020/12/29 05:51:50;;;;;;;0.20;0.10;;;;;;;3.68;100.00;96968.91;5048101;28;20459;-54
2020/12/29 05:54:18;;;;;;;0.20;0.10;;;;;;;3.62;100.00;96974.50;5050740;28;20458;-54
2020/12/29 05:56:44;;;;;;;0.20;0.10;;;;;;;3.65;100.00;96986.59;5044288;28;20450;-54
2020/12/29 05:59:13;;;;;;;0.20;0.20;;;;;;;3.91;100.00;96990.44;5041920;28;20975;-54
2020/12/29 06:01:47;;;;;;;0.20;0.20;;;;;;;3.68;100.00;96999.56;5040852;28;20988;-53
2020/12/29 06:04:14;;;;;;;0.20;0.10;;;;;;;3.75;100.00;97000.94;5048892;28;20462;-52
2020/12/29 06:06:42;;;;;;;0.20;0.10;;;;;;;3.80;100.00;97012.03;5045934;28;20457;-52
2020/12/29 06:09:11;;;;;;;0.20;0.10;;;;;;;3.68;100.00;97024.03;5042186;28;20446;-53
2020/12/29 06:11:40;;;;;;;0.20;0.10;;;;;;;3.67;100.00;97034.63;5044046;28;20440;-52
2020/12/29 06:14:14;;;;;;;0.20;0.10;;;;;;;3.79;100.00;97047.13;5049005;28;20455;-52
2020/12/29 06:16:43;;;;;;;0.20;0.10;;;;;;;3.80;100.00;97054.91;5035353;28;20463;-52
2020/12/29 06:19:21;;;;;;;0.20;0.20;;;;;;;3.68;100.00;97059.97;5048528;28;20443;-52
2020/12/29 06:22:05;;;;;;;0.20;0.10;;;;;;;3.73;100.00;97071.09;5054127;28;20490;-52
2020/12/29 06:24:34;;;;;;;0.20;0.10;;;;;;;3.71;100.00;97078.22;5054607;28;20465;-52
2020/12/29 06:27:03;;;;;;;0.20;0.10;;;;;;;3.71;100.00;97084.31;5041714;28;20526;-52
2020/12/29 06:29:32;;;;;;;0.20;0.10;;;;;;;3.74;100.00;97089.41;5046886;28;20512;-52
2020/12/29 06:32:25;;;;;;;0.20;0.10;;;;;;;3.98;100.00;97091.66;5041475;28;20457;-52
2020/12/29 06:34:51;;;;;;;0.20;0.10;;;;;;;3.86;100.00;97104.50;5040323;28;20471;-53
2020/12/29 06:37:24;;;;;;;0.20;0.10;;;;;;;3.83;100.00;97112.53;5039726;28;20483;-52
2020/12/29 06:40:11;;;;;;;0.20;0.10;;;;;;;3.99;100.00;97117.84;5048235;28;20483;-51
2020/12/29 06:42:42;;;;;;;0.20;0.10;;;;;;;3.84;100.00;97127.38;5048029;28;20451;-49
2020/12/29 06:45:10;;;;;;;0.20;0.10;;;;;;;3.79;100.00;97139.03;5055218;28;20482;-49
2020/12/29 06:47:45;;;;;;;0.20;0.10;;;;;;;3.83;100.00;97141.41;5040703;28;20480;-49
2020/12/29 06:50:31;;;;;;;0.20;0.10;;;;;;;4.05;100.00;97141.16;5042960;28;20947;-49
2020/12/29 06:53:01;;;;;;;0.20;0.10;;;;;;;3.85;100.00;97159.75;5040326;28;20466;-51
2020/12/29 06:55:38;;;;;;;0.20;0.10;;;;;;;3.78;100.00;97161.84;5042854;28;20497;-50
2020/12/29 06:58:06;;;;;;;0.20;0.10;;;;;;;3.69;100.00;97167.56;5041364;28;20462;-50
2020/12/29 07:00:35;;;;;;;0.20;0.10;;;;;;;3.88;100.00;97177.97;5041428;28;20570;-49
2020/12/29 07:03:02;;;;;;;0.20;0.20;;;;;;;3.89;100.00;97187.56;5035121;28;20461;-49
2020/12/29 07:05:30;;;;;;;0.20;0.10;;;;;;;3.85;100.00;97186.03;5051475;28;20473;-49
2020/12/29 07:08:05;;;;;;;0.20;0.10;;;;;;;3.85;100.00;97193.91;5046646;28;20468;-49
2020/12/29 07:10:42;;;;;;;0.20;0.10;;;;;;;3.84;100.00;97198.31;5047933;28;20477;-49
2020/12/29 07:13:16;;;;;;;0.20;0.10;;;;;;;3.81;100.00;97203.69;5034663;28;20434;-49
2020/12/29 07:15:49;;;;;;;0.20;0.10;;;;;;;3.75;100.00;97211.91;5053142;28;20466;-50
2020/12/29 07:18:22;;;;;;;0.20;0.10;;;;;;;3.94;100.00;97211.81;5042320;28;20506;-50
2020/12/29 07:20:51;;;;;;;0.20;0.10;;;;;;;3.80;100.00;97220.41;5045304;28;20486;-49
2020/12/29 07:23:18;;;;;;;0.20;0.10;;;;;;;3.97;100.00;97224.78;5054170;28;20443;-49
2020/12/29 07:25:49;;;;;;;0.20;0.10;;;;;;;3.80;100.00;97240.56;5046413;28;20450;-50
2020/12/29 07:28:24;;;;;;;0.20;0.10;;;;;;;3.79;100.00;97244.13;5049397;28;20726;-49
2020/12/29 07:30:51;;;;;;;0.20;0.10;;;;;;;3.94;100.00;97255.63;5044400;28;20447;-49
2020/12/29 07:33:22;;;;;;;0.20;0.10;;;;;;;3.83;100.00;97258.78;5049905;28;20444;-50
2020/12/29 07:35:49;;;;;;;0.20;0.10;;;;;;;3.89;100.00;97262.91;5053957;28;20462;-49
2020/12/29 07:38:19;;;;;;;0.20;0.10;;;;;;;3.83;100.00;97272.78;5040630;28;20478;-49
2020/12/29 07:40:46;;;;;;;0.20;0.10;;;;;;;3.71;100.00;97276.03;5053661;28;20487;-49
2020/12/29 07:43:12;;;;;;;0.20;0.10;;;;;;;3.85;100.00;97285.84;5043409;28;20514;-48
2020/12/29 07:45:39;;;;;;;0.20;0.10;;;;;;;3.86;100.00;97295.44;5045844;28;20447;-49
2020/12/29 07:48:06;;;;;;;0.20;0.20;;;;;;;3.77;100.00;97298.50;5047934;28;20487;-49
2020/12/29 07:50:36;;;;;;;0.20;0.10;;;;;;;3.91;100.00;97305.72;5034185;28;20470;-48
2020/12/29 07:53:10;;;;;;;0.20;0.13;;;;;;;3.87;100.00;97302.38;5040533;28;20506;-49
2020/12/29 07:55:41;;;;;;;0.20;0.20;;;;;;;3.95;100.00;97329.13;5053596;28;20453;-50
2020/12/29 07:58:08;;;;;;;0.20;0.10;;;;;;;3.97;100.00;97329.88;5033749;28;20606;-48
2020/12/29 08:00:39;;;;;;;0.20;0.20;;;;;;;3.95;100.00;97333.53;5039611;28;20575;-49
2020/12/29 08:03:06;;;;;;;0.20;0.20;;;;;;;3.92;100.00;97339.78;5049856;28;20991;-48
2020/12/29 08:05:34;;;;;;;0.20;0.10;;;;;;;3.92;100.00;97349.44;5053309;28;20442;-49
2020/12/29 08:08:04;;;;;;;0.20;0.13;;;;;;;3.78;100.00;97358.00;5053126;28;20471;-49
2020/12/29 08:10:32;;;;;;;0.20;0.10;;;;;;;3.96;100.00;97369.38;5053359;28;20439;-49
2020/12/29 08:13:06;;;;;;;0.20;0.10;;;;;;;3.91;100.00;97374.88;5060394;28;20866;-49
2020/12/29 08:15:38;;;;;;;0.20;0.10;;;;;;;3.96;100.00;97380.75;5053300;28;20857;-49
2020/12/29 08:18:08;;;;;;;0.20;0.17;;;;;;;3.97;100.00;97392.94;5052902;28;20475;-48
2020/12/29 08:20:46;;;;;;;0.47;0.47;;;;;;;3.94;100.00;97393.09;5051695;28;20556;-50
2020/12/29 08:23:14;;;;;;;0.20;0.10;;;;;;;3.99;100.00;97404.25;5053175;28;20446;-52
2020/12/29 08:25:47;;;;;;;0.20;0.10;;;;;;;4.02;100.00;97404.09;5046576;28;20467;-50
2020/12/29 08:28:13;;;;;;;0.20;0.10;;;;;;;3.94;100.00;97413.28;5051053;28;20494;-51
2020/12/29 08:30:40;;;;;;;0.20;0.10;;;;;;;4.01;100.00;97422.56;5058249;28;20446;-50
2020/12/29 08:33:07;;;;;;;0.20;0.10;;;;;;;3.96;100.00;97429.81;5062085;28;20466;-50
2020/12/29 08:35:45;;;;;;;0.20;0.10;;;;;;;4.07;100.00;97438.03;5053352;28;21029;-49
2020/12/29 08:38:26;;;;;;;0.20;0.10;;;;;;;4.00;100.00;97448.00;5049261;28;20474;-49
2020/12/29 08:41:05;;;;;;;0.20;0.10;;;;;;;3.93;100.00;97456.25;5049062;28;20487;-48
2020/12/29 08:43:51;;;;;;;0.20;0.13;;;;;;;4.04;100.00;97467.09;5058102;28;20961;-48
2020/12/29 08:46:19;;;;;;;0.20;0.10;;;;;;;4.16;100.00;97474.41;5052341;28;20459;-48
2020/12/29 08:48:59;;;;;;;0.20;0.10;;;;;;;4.27;100.00;97482.63;5051872;28;20493;-49
2020/12/29 08:51:30;;;;;;;0.20;0.10;;;;;;;4.11;100.00;97490.41;5051276;28;20465;-49
2020/12/29 08:54:15;;;;;;;0.20;0.10;;;;;;;4.16;100.00;97504.16;5054277;28;20458;-50
2020/12/29 08:56:42;;;;;;;0.20;0.10;;;;;;;4.25;100.00;97509.88;5054124;28;20461;-50
2020/12/29 08:59:16;;;;;;;0.20;0.10;;;;;;;4.25;100.00;97509.88;5058175;28;20470;-48
2020/12/29 09:01:54;;;;;;;0.20;0.10;;;;;;;4.27;100.00;97518.56;5053717;28;20510;-49
2020/12/29 09:04:30;;;;;;;0.20;0.10;;;;;;;4.20;100.00;97532.91;5053185;28;20822;-53
2020/12/29 09:06:57;;;;;;;0.20;0.10;;;;;;;4.29;100.00;97543.88;5060655;28;20474;-50
2020/12/29 09:09:24;;;;;;;0.20;0.10;;;;;;;4.44;100.00;97553.63;5053105;28;20520;-50
2020/12/29 09:12:04;;;;;;;0.20;0.17;;;;;;;4.37;100.00;97559.25;5053064;28;20439;-50
2020/12/29 09:14:31;;;;;;;0.20;0.10;;;;;;;4.42;100.00;97559.91;5054653;28;20442;-51
2020/12/29 09:17:05;;;;;;;0.20;0.10;;;;;;;4.49;100.00;97565.72;5068416;28;20474;-49
2020/12/29 09:19:33;;;;;;;0.20;0.10;;;;;;;4.43;100.00;97569.50;5057905;28;20493;-50
2020/12/29 09:22:12;;;;;;;0.20;0.20;;;;;;;4.46;100.00;97578.09;5052596;28;20491;-49
2020/12/29 09:24:51;;;;;;;0.20;0.10;;;;;;;4.39;100.00;97575.84;5046645;28;20518;-50
2020/12/29 09:27:33;;;;;;;0.20;0.10;;;;;;;4.39;100.00;97589.84;5051183;28;20471;-51
2020/12/29 09:30:11;;;;;;;0.20;0.10;;;;;;;4.50;100.00;97591.94;5067066;28;20454;-51
2020/12/29 09:32:38;;;;;;;0.20;0.10;;;;;;;4.72;100.00;97599.66;5066965;28;20510;-51
2020/12/29 09:35:25;;;;;;;0.20;0.20;;;;;;;4.63;100.00;97603.56;5063831;28;20447;-49
2020/12/29 09:37:57;;;;;;;0.20;0.10;;;;;;;4.59;100.00;97609.91;5065341;28;20462;-54
2020/12/29 09:40:26;;;;;;;0.20;0.10;;;;;;;4.62;100.00;97614.16;5065143;28;20925;-51
2020/12/29 09:42:53;;;;;;;0.20;0.10;;;;;;;4.73;100.00;97614.50;5052802;28;20530;-49
2020/12/29 09:45:20;;;;;;;0.20;0.10;;;;;;;4.76;100.00;97625.72;5058104;28;20453;-49
2020/12/29 09:47:47;;;;;;;0.20;0.13;;;;;;;4.92;100.00;97620.56;5055091;28;20491;-49
2020/12/29 09:50:13;;;;;;;0.20;0.10;;;;;;;4.85;100.00;97626.22;5052028;28;20859;-48
2020/12/29 09:52:40;;;;;;;0.20;0.10;;;;;;;4.85;100.00;97640.25;5052343;28;20451;-49
2020/12/29 09:55:07;;;;;;;0.20;0.10;;;;;;;4.87;100.00;97635.75;5052489;28;20465;-49
2020/12/29 09:57:33;;;;;;;0.20;0.10;;;;;;;4.98;100.00;97645.75;5051842;28;20928;-49
2020/12/29 10:00:00;;;;;;;0.20;0.10;;;;;;;5.06;100.00;97644.44;5057938;28;20836;-50
2020/12/29 10:02:26;;;;;;;0.20;0.10;;;;;;;5.13;100.00;97652.91;5056812;28;20457;-49
2020/12/29 10:04:54;;;;;;;0.20;0.10;;;;;;;5.15;100.00;97660.72;5049557;28;20830;-53
2020/12/29 10:07:22;;;;;;;0.53;0.50;;;;;;;5.26;100.00;97663.69;5050779;28;20478;-48
2020/12/29 10:09:51;;;;;;;0.20;0.10;;;;;;;5.29;100.00;97672.28;5052074;28;20486;-49
2020/12/29 10:12:17;;;;;;;0.20;0.13;;;;;;;5.32;100.00;97673.91;5048932;28;20829;-49
2020/12/29 10:14:44;;;;;;;0.20;0.20;;;;;;;5.24;100.00;97681.34;5049476;28;20489;-56
2020/12/29 10:17:10;;;;;;;0.20;0.20;;;;;;;5.52;100.00;97696.63;5053701;28;20486;-50
2020/12/29 10:19:36;;;;;;;0.20;0.17;;;;;;;5.41;100.00;97693.69;5055206;28;20455;-51
2020/12/29 10:22:03;;;;;;;0.20;0.20;;;;;;;5.33;100.00;97702.78;5055198;28;20490;-50
2020/12/29 10:24:29;;;;;;;0.20;0.10;;;;;;;5.55;100.00;97704.38;5056154;28;20537;-50
2020/12/29 10:26:57;;;;;;;0.20;0.10;;;;;;;5.56;100.00;97706.09;5054750;28;20508;-49
2020/12/29 10:29:24;;;;;;;0.20;0.20;;;;;;;5.46;100.00;97708.31;5055189;28;20453;-49
2020/12/29 10:31:51;;;;;;;0.20;0.10;;;;;;;5.53;100.00;97704.47;5063361;28;21249;-52
2020/12/29 10:34:17;;;;;;;0.30;0.10;;;;;;;5.59;100.00;97705.91;5055247;28;20494;-52
2020/12/29 10:36:45;;;;;;;0.20;0.10;;;;;;;5.65;100.00;97706.47;5056442;28;20447;-52
2020/12/29 10:39:12;;;;;;;0.20;0.10;;;;;;;5.63;100.00;97710.97;5054723;28;20800;-51
2020/12/29 10:41:43;;;;;;;0.20;0.10;;;;;;;5.81;100.00;97713.59;5063767;28;20490;-50
2020/12/29 10:44:10;;;;;;;0.20;0.10;;;;;;;5.89;100.00;97721.97;5052032;28;20460;-49
2020/12/29 10:46:37;;;;;;;0.20;0.10;;;;;;;6.06;100.00;97726.41;5058314;28;20477;-51
2020/12/29 10:49:04;;;;;;;0.20;0.10;;;;;;;5.98;100.00;97725.94;5054230;28;20953;-52
2020/12/29 10:51:31;;;;;;;0.20;0.20;;;;;;;6.00;100.00;97735.47;5059128;28;20481;-50
2020/12/29 10:53:57;;;;;;;0.20;0.13;;;;;;;5.80;100.00;97735.63;5051783;28;20565;-50
2020/12/29 10:56:23;;;;;;;0.20;0.10;;;;;;;5.77;100.00;97735.78;5053709;28;20470;-50
2020/12/29 10:58:50;;;;;;;0.20;0.10;;;;;;;5.76;100.00;97734.09;5053808;28;20551;-50
2020/12/29 11:01:21;;;;;;;0.20;0.10;;;;;;;5.84;100.00;97735.38;5053392;28;20573;-50
2020/12/29 11:03:48;;;;;;;0.20;0.20;;;;;;;5.73;100.00;97732.44;5060883;28;20442;-51
2020/12/29 11:06:17;;;;;;;0.20;0.10;;;;;;;5.92;100.00;97735.88;5062677;28;20462;-50
2020/12/29 11:08:44;;;;;;;0.20;0.20;;;;;;;5.80;100.00;97738.25;5054197;28;20470;-51
2020/12/29 11:11:11;;;;;;;0.20;0.10;;;;;;;5.77;100.00;97746.31;5054242;28;20450;-50
2020/12/29 11:13:38;;;;;;;0.33;0.30;;;;;;;5.85;100.00;97744.13;5055225;28;20451;-50
2020/12/29 11:16:04;;;;;;;0.20;0.10;;;;;;;5.91;100.00;97751.78;5054233;28;20504;-50
2020/12/29 11:18:31;;;;;;;0.20;0.10;;;;;;;5.83;100.00;97764.47;5054158;28;20592;-50
2020/12/29 11:20:57;;;;;;;0.20;0.10;;;;;;;5.75;100.00;97762.19;5059011;28;20486;-49
2020/12/29 11:23:23;;;;;;;0.20;0.10;;;;;;;5.70;100.00;97764.22;5052643;28;20536;-51
2020/12/29 11:25:50;;;;;;;0.20;0.10;;;;;;;5.71;100.00;97768.56;5058621;28;20477;-50
2020/12/29 11:28:16;;;;;;;0.20;0.20;;;;;;;5.76;100.00;97769.19;5051688;28;20504;-51
2020/12/29 11:30:45;;;;;;;0.20;0.13;;;;;;;5.86;100.00;97780.13;5053704;28;20963;-49
2020/12/29 11:33:11;;;;;;;0.20;0.10;;;;;;;5.93;100.00;97776.28;5054230;28;20496;-50
2020/12/29 11:35:37;;;;;;;0.20;0.20;;;;;;;5.93;100.00;97786.84;5053788;28;20959;-50
2020/12/29 11:38:03;;;;;;;0.20;0.10;;;;;;;5.96;100.00;97786.66;5055024;28;20482;-50
2020/12/29 11:40:29;;;;;;;0.20;0.10;;;;;;;5.92;100.00;97787.75;5052228;28;20502;-50
2020/12/29 11:42:56;;;;;;;0.20;0.20;;;;;;;5.94;100.00;97789.38;5052517;28;20470;-50